Sagittarian — WCY5210 — position and weather

sailwx.info

Track history (hours):
 
Tides and Currents Weather Stations Pressure Air Temp Water Temp Dewpoint Dewpoint Depression Visibility Wind Speed Wind Dir Waves Ship Positions

Sagittarian

Owner: TAURUS MARINE, SAN FRANCISCO, CA. More information available from US FCC via Universal Licensing System and Coast Guard Vessel Documentation Center.

Last reported at 2017-Jan-23 17:27 UTC. Time now 2017-Jan-24 21:22 UTC.
Position N 37°46' W 122°23'.

; draft 3 m.

Type: Towing. MMSI: 366969510.

Date/timePositionNaut miles runAvg speedWind from/ knotsBaromVisibWave heightAir tempDewpointWater temp
2017-Jan-23 17:27N 37°46' W 122°23'7 7.9
2017-Jan-23 16:33N 37°54' W 122°24'2 1.8
2017-Jan-23 15:33N 37°55' W 122°26'7 6.8
2017-Jan-23 14:33N 37°48' W 122°23'0 0.1
2017-Jan-23 07:33N 37°49' W 122°24'6 5.7
2017-Jan-23 06:33N 37°54' W 122°26'1 1.2
2017-Jan-23 05:33N 37°55' W 122°25'8 8.0
2017-Jan-23 04:33N 37°47' W 122°23'1 0.7
2017-Jan-23 03:33N 37°46' W 122°23'6 5.9
2017-Jan-23 02:33N 37°49' W 122°29'0 0.3
2017-Jan-23 01:33N 37°49' W 122°29'5 5.2
2017-Jan-23 00:33N 37°53' W 122°25'1 1.5
2017-Jan-22 23:33N 37°55' W 122°26'9 8.6
2017-Jan-22 22:33N 37°46' W 122°23'0 0.0
2017-Jan-22 19:17N 37°46' W 122°23'5 7.2
2017-Jan-22 18:33N 37°52' W 122°24'4 3.8
2017-Jan-22 17:33N 37°55' W 122°25'3 3.3
2017-Jan-22 16:33N 37°52' W 122°24'6 5.8
2017-Jan-22 15:33N 37°46' W 122°23'  
2017-Jan-19 18:23N 37°46' W 122°23'0 0.5
2017-Jan-19 17:33N 37°47' W 122°23'10 9.8
2017-Jan-19 16:33N 37°56' W 122°26'1110.3
2017-Jan-19 15:32N 38°04' W 122°16'2 1.1
2017-Jan-19 13:22N 38°04' W 122°13'4 0.2
2017-Jan-18 16:07N 38°02' W 122°09'4 6.8
2017-Jan-18 15:30N 38°04' W 122°13'7 7.1
2017-Jan-18 14:27N 38°02' W 122°22'6 6.9
2017-Jan-18 13:33N 37°56' W 122°26'3 3.4
2017-Jan-18 12:33N 37°55' W 122°22'4 3.7
2017-Jan-18 11:33N 37°51' W 122°24'5 0.8
2017-Jan-18 05:33N 37°46' W 122°23'9 8.9
2017-Jan-18 04:33N 37°55' W 122°25'1 1.5
2017-Jan-18 03:33N 37°54' W 122°26'0 0.3
2017-Jan-18 02:33N 37°55' W 122°26'1 0.6
2017-Jan-18 01:31N 37°55' W 122°26'1 1.1
2017-Jan-18 00:30N 37°55' W 122°25'1 1.3
2017-Jan-17 23:33N 37°54' W 122°24'8 7.7
2017-Jan-17 22:33N 37°47' W 122°23'3 1.4
2017-Jan-17 20:33N 37°49' W 122°24'1110.9
2017-Jan-17 19:33N 38°00' W 122°24'13 0.4
2017-Jan-16 09:09N 38°02' W 122°08'1 0.8
2017-Jan-16 08:32N 38°02' W 122°09'3 2.1
2017-Jan-16 07:03N 38°04' W 122°12'3 5.9
2017-Jan-16 06:33N 38°04' W 122°16'7 5.8
2017-Jan-16 05:26N 38°01' W 122°24'5 5.0
2017-Jan-16 04:30N 37°57' W 122°26'4 4.6
2017-Jan-16 03:33N 37°55' W 122°22'1 0.9
2017-Jan-16 02:33N 37°54' W 122°23'8 7.8
2017-Jan-16 01:34N 37°46' W 122°23'0 0.0
2017-Jan-15 05:15N 37°46' W 122°23'0 0.6
2017-Jan-15 04:33N 37°46' W 122°23'1 0.0
2017-Jan-14 04:33N 37°47' W 122°23'2 1.8
2017-Jan-14 03:33N 37°49' W 122°25'2 0.4
2017-Jan-13 23:33N 37°47' W 122°23'1 0.9
2017-Jan-13 22:33N 37°46' W 122°23'0 0.0
2017-Jan-13 21:33N 37°46' W 122°23'0 0.0
2017-Jan-13 20:33N 37°46' W 122°23'0 0.0
2017-Jan-13 19:33N 37°46' W 122°23'0 0.0
2017-Jan-13 18:33N 37°46' W 122°23'0 0.0
2017-Jan-13 17:33N 37°46' W 122°23'  
Track history (hours):
 
Tides and Currents Weather Stations Pressure Air Temp Water Temp Dewpoint Dewpoint Depression Visibility Wind Speed Wind Dir Waves Ship Positions

Sagittarian

Owner: TAURUS MARINE, SAN FRANCISCO, CA. More information available from US FCC via Universal Licensing System and Coast Guard Vessel Documentation Center.

Last reported at 2017-Jan-23 17:27 UTC. Time now 2017-Jan-24 21:22 UTC.
Position N 37°46' W 122°23'.

; draft 3 m.

Type: Towing. MMSI: 366969510.

Date/timePositionNaut miles runAvg speedWind from/ knotsBaromVisibWave heightAir tempDewpointWater temp
2017-Jan-23 17:27N 37°46' W 122°23'7 7.9
2017-Jan-23 16:33N 37°54' W 122°24'2 1.8
2017-Jan-23 15:33N 37°55' W 122°26'7 6.8
2017-Jan-23 14:33N 37°48' W 122°23'0 0.1
2017-Jan-23 07:33N 37°49' W 122°24'6 5.7
2017-Jan-23 06:33N 37°54' W 122°26'1 1.2
2017-Jan-23 05:33N 37°55' W 122°25'8 8.0
2017-Jan-23 04:33N 37°47' W 122°23'1 0.7
2017-Jan-23 03:33N 37°46' W 122°23'6 5.9
2017-Jan-23 02:33N 37°49' W 122°29'0 0.3
2017-Jan-23 01:33N 37°49' W 122°29'5 5.2
2017-Jan-23 00:33N 37°53' W 122°25'1 1.5
2017-Jan-22 23:33N 37°55' W 122°26'9 8.6
2017-Jan-22 22:33N 37°46' W 122°23'0 0.0
2017-Jan-22 19:17N 37°46' W 122°23'5 7.2
2017-Jan-22 18:33N 37°52' W 122°24'4 3.8
2017-Jan-22 17:33N 37°55' W 122°25'3 3.3
2017-Jan-22 16:33N 37°52' W 122°24'6 5.8
2017-Jan-22 15:33N 37°46' W 122°23'  
2017-Jan-19 18:23N 37°46' W 122°23'0 0.5
2017-Jan-19 17:33N 37°47' W 122°23'10 9.8
2017-Jan-19 16:33N 37°56' W 122°26'1110.3
2017-Jan-19 15:32N 38°04' W 122°16'2 1.1
2017-Jan-19 13:22N 38°04' W 122°13'4 0.2
2017-Jan-18 16:07N 38°02' W 122°09'4 6.8
2017-Jan-18 15:30N 38°04' W 122°13'7 7.1
2017-Jan-18 14:27N 38°02' W 122°22'6 6.9
2017-Jan-18 13:33N 37°56' W 122°26'3 3.4
2017-Jan-18 12:33N 37°55' W 122°22'4 3.7
2017-Jan-18 11:33N 37°51' W 122°24'5 0.8
2017-Jan-18 05:33N 37°46' W 122°23'9 8.9
2017-Jan-18 04:33N 37°55' W 122°25'1 1.5
2017-Jan-18 03:33N 37°54' W 122°26'0 0.3
2017-Jan-18 02:33N 37°55' W 122°26'1 0.6
2017-Jan-18 01:31N 37°55' W 122°26'1 1.1
2017-Jan-18 00:30N 37°55' W 122°25'1 1.3
2017-Jan-17 23:33N 37°54' W 122°24'8 7.7
2017-Jan-17 22:33N 37°47' W 122°23'3 1.4
2017-Jan-17 20:33N 37°49' W 122°24'1110.9
2017-Jan-17 19:33N 38°00' W 122°24'13 0.4
2017-Jan-16 09:09N 38°02' W 122°08'1 0.8
2017-Jan-16 08:32N 38°02' W 122°09'3 2.1
2017-Jan-16 07:03N 38°04' W 122°12'3 5.9
2017-Jan-16 06:33N 38°04' W 122°16'7 5.8
2017-Jan-16 05:26N 38°01' W 122°24'5 5.0
2017-Jan-16 04:30N 37°57' W 122°26'4 4.6
2017-Jan-16 03:33N 37°55' W 122°22'1 0.9
2017-Jan-16 02:33N 37°54' W 122°23'8 7.8
2017-Jan-16 01:34N 37°46' W 122°23'0 0.0
2017-Jan-15 05:15N 37°46' W 122°23'0 0.6
2017-Jan-15 04:33N 37°46' W 122°23'1 0.0
2017-Jan-14 04:33N 37°47' W 122°23'2 1.8
2017-Jan-14 03:33N 37°49' W 122°25'2 0.4
2017-Jan-13 23:33N 37°47' W 122°23'1 0.9
2017-Jan-13 22:33N 37°46' W 122°23'0 0.0
2017-Jan-13 21:33N 37°46' W 122°23'0 0.0
2017-Jan-13 20:33N 37°46' W 122°23'0 0.0
2017-Jan-13 19:33N 37°46' W 122°23'0 0.0
2017-Jan-13 18:33N 37°46' W 122°23'0 0.0
2017-Jan-13 17:33N 37°46' W 122°23'  

Dump ship's entire track history